sensor_id;sensor_type;location;lat;lon;timestamp;P1;durP1;ratioP1;P2;durP2;ratioP2
54845;SDS011;53889;50.084;8.646;2023-04-24T00:00:34;2.03;;;0.90;;
54845;SDS011;53889;50.084;8.646;2023-04-24T00:03:03;1.55;;;1.00;;
54845;SDS011;53889;50.084;8.646;2023-04-24T00:05:31;2.17;;;1.10;;
54845;SDS011;53889;50.084;8.646;2023-04-24T00:08:00;2.65;;;1.10;;
54845;SDS011;53889;50.084;8.646;2023-04-24T00:10:26;2.17;;;1.02;;
54845;SDS011;53889;50.084;8.646;2023-04-24T00:12:53;2.85;;;1.10;;
54845;SDS011;53889;50.084;8.646;2023-04-24T00:15:20;2.42;;;1.20;;
54845;SDS011;53889;50.084;8.646;2023-04-24T00:17:47;1.65;;;1.00;;
54845;SDS011;53889;50.084;8.646;2023-04-24T00:20:13;2.90;;;1.10;;
54845;SDS011;53889;50.084;8.646;2023-04-24T00:22:40;3.50;;;1.30;;
54845;SDS011;53889;50.084;8.646;2023-04-24T00:25:09;2.35;;;1.08;;
54845;SDS011;53889;50.084;8.646;2023-04-24T00:27:36;2.80;;;1.10;;
54845;SDS011;53889;50.084;8.646;2023-04-24T00:30:04;1.45;;;1.02;;
54845;SDS011;53889;50.084;8.646;2023-04-24T00:32:31;3.03;;;1.40;;
54845;SDS011;53889;50.084;8.646;2023-04-24T00:34:58;2.60;;;1.35;;
54845;SDS011;53889;50.084;8.646;2023-04-24T00:37:25;4.15;;;1.33;;
54845;SDS011;53889;50.084;8.646;2023-04-24T00:39:51;2.97;;;1.10;;
54845;SDS011;53889;50.084;8.646;2023-04-24T00:42:20;1.83;;;1.00;;
54845;SDS011;53889;50.084;8.646;2023-04-24T00:44:46;3.28;;;1.30;;
54845;SDS011;53889;50.084;8.646;2023-04-24T00:47:13;2.60;;;1.20;;
54845;SDS011;53889;50.084;8.646;2023-04-24T00:49:40;2.17;;;1.30;;
54845;SDS011;53889;50.084;8.646;2023-04-24T00:52:07;2.10;;;1.20;;
54845;SDS011;53889;50.084;8.646;2023-04-24T00:54:34;2.72;;;1.20;;
54845;SDS011;53889;50.084;8.646;2023-04-24T00:57:01;3.17;;;1.20;;
54845;SDS011;53889;50.084;8.646;2023-04-24T00:59:30;3.53;;;1.23;;
54845;SDS011;53889;50.084;8.646;2023-04-24T01:01:57;2.08;;;0.90;;
54845;SDS011;53889;50.084;8.646;2023-04-24T01:04:24;2.53;;;1.00;;
54845;SDS011;53889;50.084;8.646;2023-04-24T01:06:52;1.70;;;1.00;;
54845;SDS011;53889;50.084;8.646;2023-04-24T01:09:21;1.85;;;1.10;;
54845;SDS011;53889;50.084;8.646;2023-04-24T01:11:49;2.97;;;0.98;;
54845;SDS011;53889;50.084;8.646;2023-04-24T01:14:17;3.05;;;1.20;;
54845;SDS011;53889;50.084;8.646;2023-04-24T01:16:45;3.13;;;0.93;;
54845;SDS011;53889;50.084;8.646;2023-04-24T01:19:11;3.10;;;1.30;;
54845;SDS011;53889;50.084;8.646;2023-04-24T01:21:40;4.28;;;1.20;;
54845;SDS011;53889;50.084;8.646;2023-04-24T01:24:10;2.15;;;0.95;;
54845;SDS011;53889;50.084;8.646;2023-04-24T01:26:37;3.58;;;1.15;;
54845;SDS011;53889;50.084;8.646;2023-04-24T01:29:04;2.40;;;0.98;;
54845;SDS011;53889;50.084;8.646;2023-04-24T01:31:31;1.80;;;1.00;;
54845;SDS011;53889;50.084;8.646;2023-04-24T01:33:59;2.75;;;1.10;;
54845;SDS011;53889;50.084;8.646;2023-04-24T01:36:26;3.03;;;1.10;;
54845;SDS011;53889;50.084;8.646;2023-04-24T01:38:54;1.88;;;1.00;;
54845;SDS011;53889;50.084;8.646;2023-04-24T01:41:22;5.75;;;1.30;;
54845;SDS011;53889;50.084;8.646;2023-04-24T01:43:50;2.85;;;1.05;;
54845;SDS011;53889;50.084;8.646;2023-04-24T01:46:18;2.78;;;1.08;;
54845;SDS011;53889;50.084;8.646;2023-04-24T01:48:45;3.67;;;1.08;;
54845;SDS011;53889;50.084;8.646;2023-04-24T01:51:12;2.17;;;1.10;;
54845;SDS011;53889;50.084;8.646;2023-04-24T01:53:39;3.00;;;1.20;;
54845;SDS011;53889;50.084;8.646;2023-04-24T01:56:06;2.50;;;1.27;;
54845;SDS011;53889;50.084;8.646;2023-04-24T01:58:34;4.00;;;1.10;;
54845;SDS011;53889;50.084;8.646;2023-04-24T02:01:01;2.55;;;1.10;;
54845;SDS011;53889;50.084;8.646;2023-04-24T02:03:28;2.92;;;1.10;;
54845;SDS011;53889;50.084;8.646;2023-04-24T02:05:57;3.03;;;1.10;;
54845;SDS011;53889;50.084;8.646;2023-04-24T02:08:23;4.10;;;0.98;;
54845;SDS011;53889;50.084;8.646;2023-04-24T02:10:50;2.67;;;1.10;;
54845;SDS011;53889;50.084;8.646;2023-04-24T02:13:17;2.65;;;1.13;;
54845;SDS011;53889;50.084;8.646;2023-04-24T02:15:45;4.22;;;1.15;;
54845;SDS011;53889;50.084;8.646;2023-04-24T02:18:12;2.83;;;1.20;;
54845;SDS011;53889;50.084;8.646;2023-04-24T02:20:38;4.13;;;1.33;;
54845;SDS011;53889;50.084;8.646;2023-04-24T02:23:05;1.77;;;1.00;;
54845;SDS011;53889;50.084;8.646;2023-04-24T02:25:32;1.92;;;1.00;;
54845;SDS011;53889;50.084;8.646;2023-04-24T02:27:59;2.80;;;1.20;;
54845;SDS011;53889;50.084;8.646;2023-04-24T02:30:27;3.20;;;1.08;;
54845;SDS011;53889;50.084;8.646;2023-04-24T02:32:55;2.20;;;1.08;;
54845;SDS011;53889;50.084;8.646;2023-04-24T02:35:22;2.97;;;1.10;;
54845;SDS011;53889;50.084;8.646;2023-04-24T02:37:48;2.13;;;1.00;;
54845;SDS011;53889;50.084;8.646;2023-04-24T02:40:15;5.25;;;1.20;;
54845;SDS011;53889;50.084;8.646;2023-04-24T02:42:42;2.55;;;1.00;;
54845;SDS011;53889;50.084;8.646;2023-04-24T02:45:09;2.92;;;1.20;;
54845;SDS011;53889;50.084;8.646;2023-04-24T02:47:36;2.47;;;1.10;;
54845;SDS011;53889;50.084;8.646;2023-04-24T02:50:05;1.75;;;0.90;;
54845;SDS011;53889;50.084;8.646;2023-04-24T02:52:32;2.85;;;1.00;;
54845;SDS011;53889;50.084;8.646;2023-04-24T02:54:59;2.35;;;0.90;;
54845;SDS011;53889;50.084;8.646;2023-04-24T02:57:26;3.17;;;1.00;;
54845;SDS011;53889;50.084;8.646;2023-04-24T02:59:52;2.80;;;1.10;;
54845;SDS011;53889;50.084;8.646;2023-04-24T03:02:19;3.90;;;1.20;;
54845;SDS011;53889;50.084;8.646;2023-04-24T03:04:46;2.17;;;0.90;;
54845;SDS011;53889;50.084;8.646;2023-04-24T03:07:15;3.38;;;1.17;;
54845;SDS011;53889;50.084;8.646;2023-04-24T03:09:42;1.50;;;0.80;;
54845;SDS011;53889;50.084;8.646;2023-04-24T03:12:08;2.45;;;1.10;;
54845;SDS011;53889;50.084;8.646;2023-04-24T03:14:35;1.98;;;1.08;;
54845;SDS011;53889;50.084;8.646;2023-04-24T03:17:02;4.10;;;1.10;;
54845;SDS011;53889;50.084;8.646;2023-04-24T03:19:29;3.63;;;1.30;;
54845;SDS011;53889;50.084;8.646;2023-04-24T03:22:02;1.95;;;0.90;;
54845;SDS011;53889;50.084;8.646;2023-04-24T03:24:31;5.28;;;1.15;;
54845;SDS011;53889;50.084;8.646;2023-04-24T03:26:58;4.15;;;1.15;;
54845;SDS011;53889;50.084;8.646;2023-04-24T03:29:45;3.15;;;0.85;;
54845;SDS011;53889;50.084;8.646;2023-04-24T03:32:12;2.20;;;1.00;;
54845;SDS011;53889;50.084;8.646;2023-04-24T03:34:39;3.47;;;1.02;;
54845;SDS011;53889;50.084;8.646;2023-04-24T03:37:07;3.88;;;1.00;;
54845;SDS011;53889;50.084;8.646;2023-04-24T03:39:40;3.78;;;1.00;;
54845;SDS011;53889;50.084;8.646;2023-04-24T03:42:07;2.35;;;1.10;;
54845;SDS011;53889;50.084;8.646;2023-04-24T03:44:44;2.75;;;1.00;;
54845;SDS011;53889;50.084;8.646;2023-04-24T03:47:11;2.47;;;1.40;;
54845;SDS011;53889;50.084;8.646;2023-04-24T03:49:38;2.05;;;0.90;;
54845;SDS011;53889;50.084;8.646;2023-04-24T03:52:05;2.53;;;0.90;;
54845;SDS011;53889;50.084;8.646;2023-04-24T03:54:31;3.08;;;1.00;;
54845;SDS011;53889;50.084;8.646;2023-04-24T03:57:00;2.53;;;1.00;;
54845;SDS011;53889;50.084;8.646;2023-04-24T03:59:29;4.22;;;1.67;;
54845;SDS011;53889;50.084;8.646;2023-04-24T04:02:16;2.83;;;1.20;;
54845;SDS011;53889;50.084;8.646;2023-04-24T04:04:42;3.60;;;1.70;;
54845;SDS011;53889;50.084;8.646;2023-04-24T04:07:09;3.05;;;1.13;;
54845;SDS011;53889;50.084;8.646;2023-04-24T04:09:36;1.85;;;1.10;;
54845;SDS011;53889;50.084;8.646;2023-04-24T04:12:04;5.35;;;1.33;;
54845;SDS011;53889;50.084;8.646;2023-04-24T04:14:32;1.80;;;1.15;;
54845;SDS011;53889;50.084;8.646;2023-04-24T04:16:59;4.35;;;1.30;;
54845;SDS011;53889;50.084;8.646;2023-04-24T04:19:26;1.83;;;1.00;;
54845;SDS011;53889;50.084;8.646;2023-04-24T04:21:53;4.07;;;1.13;;
54845;SDS011;53889;50.084;8.646;2023-04-24T04:24:36;1.75;;;1.00;;
54845;SDS011;53889;50.084;8.646;2023-04-24T04:27:07;3.00;;;1.10;;
54845;SDS011;53889;50.084;8.646;2023-04-24T04:29:42;2.30;;;0.98;;
54845;SDS011;53889;50.084;8.646;2023-04-24T04:32:10;3.22;;;1.27;;
54845;SDS011;53889;50.084;8.646;2023-04-24T04:34:37;1.70;;;1.10;;
54845;SDS011;53889;50.084;8.646;2023-04-24T04:37:06;1.52;;;1.00;;
54845;SDS011;53889;50.084;8.646;2023-04-24T04:39:51;3.67;;;1.17;;
54845;SDS011;53889;50.084;8.646;2023-04-24T04:42:23;1.45;;;1.08;;
54845;SDS011;53889;50.084;8.646;2023-04-24T04:44:50;2.72;;;1.27;;
54845;SDS011;53889;50.084;8.646;2023-04-24T04:47:21;2.35;;;1.20;;
54845;SDS011;53889;50.084;8.646;2023-04-24T04:49:49;5.90;;;1.27;;
54845;SDS011;53889;50.084;8.646;2023-04-24T04:52:23;2.38;;;1.20;;
54845;SDS011;53889;50.084;8.646;2023-04-24T04:54:55;3.03;;;1.20;;
54845;SDS011;53889;50.084;8.646;2023-04-24T04:57:29;1.25;;;1.02;;
54845;SDS011;53889;50.084;8.646;2023-04-24T04:59:56;2.22;;;1.40;;
54845;SDS011;53889;50.084;8.646;2023-04-24T05:02:36;2.33;;;1.40;;
54845;SDS011;53889;50.084;8.646;2023-04-24T05:05:04;3.88;;;1.63;;
54845;SDS011;53889;50.084;8.646;2023-04-24T05:07:31;1.92;;;1.23;;
54845;SDS011;53889;50.084;8.646;2023-04-24T05:09:58;2.28;;;1.17;;
54845;SDS011;53889;50.084;8.646;2023-04-24T05:12:24;3.25;;;1.25;;
54845;SDS011;53889;50.084;8.646;2023-04-24T05:14:54;2.72;;;1.50;;
54845;SDS011;53889;50.084;8.646;2023-04-24T05:17:21;7.13;;;2.53;;
54845;SDS011;53889;50.084;8.646;2023-04-24T05:19:48;3.58;;;1.50;;
54845;SDS011;53889;50.084;8.646;2023-04-24T05:22:17;4.38;;;2.00;;
54845;SDS011;53889;50.084;8.646;2023-04-24T05:24:49;2.90;;;1.85;;
54845;SDS011;53889;50.084;8.646;2023-04-24T05:27:39;2.83;;;1.73;;
54845;SDS011;53889;50.084;8.646;2023-04-24T05:30:13;4.40;;;1.70;;
54845;SDS011;53889;50.084;8.646;2023-04-24T05:32:40;3.58;;;1.50;;
54845;SDS011;53889;50.084;8.646;2023-04-24T05:35:07;2.20;;;1.50;;
54845;SDS011;53889;50.084;8.646;2023-04-24T05:37:35;5.35;;;1.90;;
54845;SDS011;53889;50.084;8.646;2023-04-24T05:40:02;2.60;;;1.63;;
54845;SDS011;53889;50.084;8.646;2023-04-24T05:42:30;3.15;;;1.60;;
54845;SDS011;53889;50.084;8.646;2023-04-24T05:44:57;3.88;;;1.75;;
54845;SDS011;53889;50.084;8.646;2023-04-24T05:47:26;3.33;;;1.73;;
54845;SDS011;53889;50.084;8.646;2023-04-24T05:49:53;4.35;;;2.05;;
54845;SDS011;53889;50.084;8.646;2023-04-24T05:52:20;6.10;;;1.90;;
54845;SDS011;53889;50.084;8.646;2023-04-24T05:54:48;3.03;;;1.70;;
54845;SDS011;53889;50.084;8.646;2023-04-24T05:57:20;4.90;;;2.03;;
54845;SDS011;53889;50.084;8.646;2023-04-24T05:59:57;3.33;;;1.83;;
54845;SDS011;53889;50.084;8.646;2023-04-24T06:02:24;4.53;;;1.58;;
54845;SDS011;53889;50.084;8.646;2023-04-24T06:04:58;3.83;;;1.80;;
54845;SDS011;53889;50.084;8.646;2023-04-24T06:07:25;2.92;;;1.70;;
54845;SDS011;53889;50.084;8.646;2023-04-24T06:09:52;3.65;;;1.55;;
54845;SDS011;53889;50.084;8.646;2023-04-24T06:12:19;3.35;;;1.60;;
54845;SDS011;53889;50.084;8.646;2023-04-24T06:14:55;3.47;;;1.90;;
54845;SDS011;53889;50.084;8.646;2023-04-24T06:17:31;2.20;;;1.40;;
54845;SDS011;53889;50.084;8.646;2023-04-24T06:19:58;3.40;;;1.73;;
54845;SDS011;53889;50.084;8.646;2023-04-24T06:22:25;3.22;;;1.88;;
54845;SDS011;53889;50.084;8.646;2023-04-24T06:24:52;2.97;;;1.77;;
54845;SDS011;53889;50.084;8.646;2023-04-24T06:27:19;2.83;;;1.90;;
54845;SDS011;53889;50.084;8.646;2023-04-24T06:29:45;4.13;;;1.90;;
54845;SDS011;53889;50.084;8.646;2023-04-24T06:32:17;6.78;;;2.75;;
54845;SDS011;53889;50.084;8.646;2023-04-24T06:37:38;6.97;;;2.40;;
54845;SDS011;53889;50.084;8.646;2023-04-24T06:40:06;2.95;;;2.03;;
54845;SDS011;53889;50.084;8.646;2023-04-24T06:42:33;3.72;;;2.33;;
54845;SDS011;53889;50.084;8.646;2023-04-24T06:45:02;3.67;;;2.40;;
54845;SDS011;53889;50.084;8.646;2023-04-24T06:47:30;3.33;;;1.98;;
54845;SDS011;53889;50.084;8.646;2023-04-24T06:49:57;3.58;;;2.42;;
54845;SDS011;53889;50.084;8.646;2023-04-24T06:52:25;3.85;;;2.70;;
54845;SDS011;53889;50.084;8.646;2023-04-24T06:54:52;3.45;;;2.28;;
54845;SDS011;53889;50.084;8.646;2023-04-24T06:57:18;4.05;;;2.30;;
54845;SDS011;53889;50.084;8.646;2023-04-24T06:59:46;3.33;;;2.05;;
54845;SDS011;53889;50.084;8.646;2023-04-24T07:02:12;3.80;;;2.17;;
54845;SDS011;53889;50.084;8.646;2023-04-24T07:04:39;8.30;;;3.22;;
54845;SDS011;53889;50.084;8.646;2023-04-24T07:07:06;3.03;;;1.73;;
54845;SDS011;53889;50.084;8.646;2023-04-24T07:09:35;3.42;;;1.95;;
54845;SDS011;53889;50.084;8.646;2023-04-24T07:12:03;4.57;;;2.20;;
54845;SDS011;53889;50.084;8.646;2023-04-24T07:14:30;5.35;;;1.98;;
54845;SDS011;53889;50.084;8.646;2023-04-24T07:16:57;7.75;;;5.53;;
54845;SDS011;53889;50.084;8.646;2023-04-24T07:19:24;5.50;;;2.75;;
54845;SDS011;53889;50.084;8.646;2023-04-24T07:21:51;2.92;;;2.08;;
54845;SDS011;53889;50.084;8.646;2023-04-24T07:24:18;4.78;;;2.40;;
54845;SDS011;53889;50.084;8.646;2023-04-24T07:26:46;3.85;;;2.20;;
54845;SDS011;53889;50.084;8.646;2023-04-24T07:29:13;4.28;;;1.77;;
54845;SDS011;53889;50.084;8.646;2023-04-24T07:31:40;2.95;;;1.63;;
54845;SDS011;53889;50.084;8.646;2023-04-24T07:34:07;4.53;;;1.90;;
54845;SDS011;53889;50.084;8.646;2023-04-24T07:36:34;3.40;;;2.00;;
54845;SDS011;53889;50.084;8.646;2023-04-24T07:39:03;3.13;;;2.00;;
54845;SDS011;53889;50.084;8.646;2023-04-24T07:41:31;2.83;;;1.90;;
54845;SDS011;53889;50.084;8.646;2023-04-24T07:43:59;2.78;;;1.80;;
54845;SDS011;53889;50.084;8.646;2023-04-24T07:46:26;3.03;;;1.73;;
54845;SDS011;53889;50.084;8.646;2023-04-24T07:48:54;3.65;;;1.80;;
54845;SDS011;53889;50.084;8.646;2023-04-24T07:51:21;3.45;;;1.85;;
54845;SDS011;53889;50.084;8.646;2023-04-24T07:53:48;2.58;;;1.77;;
54845;SDS011;53889;50.084;8.646;2023-04-24T07:56:15;3.70;;;1.85;;
54845;SDS011;53889;50.084;8.646;2023-04-24T07:58:43;4.20;;;1.90;;
54845;SDS011;53889;50.084;8.646;2023-04-24T08:01:11;3.63;;;2.20;;
54845;SDS011;53889;50.084;8.646;2023-04-24T08:03:37;4.20;;;2.38;;
54845;SDS011;53889;50.084;8.646;2023-04-24T08:06:04;4.72;;;2.35;;
54845;SDS011;53889;50.084;8.646;2023-04-24T08:08:32;3.70;;;2.30;;
54845;SDS011;53889;50.084;8.646;2023-04-24T08:10:59;4.72;;;2.30;;
54845;SDS011;53889;50.084;8.646;2023-04-24T08:13:26;3.80;;;2.13;;
54845;SDS011;53889;50.084;8.646;2023-04-24T08:15:53;6.35;;;2.80;;
54845;SDS011;53889;50.084;8.646;2023-04-24T08:18:21;4.50;;;2.33;;
54845;SDS011;53889;50.084;8.646;2023-04-24T08:20:48;2.95;;;1.83;;
54845;SDS011;53889;50.084;8.646;2023-04-24T08:23:15;3.30;;;2.00;;
54845;SDS011;53889;50.084;8.646;2023-04-24T08:25:41;3.50;;;1.90;;
54845;SDS011;53889;50.084;8.646;2023-04-24T08:28:08;3.00;;;2.00;;
54845;SDS011;53889;50.084;8.646;2023-04-24T08:30:35;3.95;;;2.00;;
54845;SDS011;53889;50.084;8.646;2023-04-24T08:33:03;4.78;;;1.88;;
54845;SDS011;53889;50.084;8.646;2023-04-24T08:35:31;2.97;;;2.20;;
54845;SDS011;53889;50.084;8.646;2023-04-24T08:37:58;3.53;;;1.80;;
54845;SDS011;53889;50.084;8.646;2023-04-24T08:40:27;3.80;;;1.90;;
54845;SDS011;53889;50.084;8.646;2023-04-24T08:42:55;4.50;;;1.90;;
54845;SDS011;53889;50.084;8.646;2023-04-24T08:45:22;4.45;;;2.00;;
54845;SDS011;53889;50.084;8.646;2023-04-24T08:47:51;2.88;;;1.73;;
54845;SDS011;53889;50.084;8.646;2023-04-24T08:50:19;2.95;;;1.90;;
54845;SDS011;53889;50.084;8.646;2023-04-24T08:52:48;3.33;;;2.03;;
54845;SDS011;53889;50.084;8.646;2023-04-24T08:55:18;3.50;;;2.10;;
54845;SDS011;53889;50.084;8.646;2023-04-24T08:57:45;5.68;;;3.53;;
54845;SDS011;53889;50.084;8.646;2023-04-24T09:00:16;5.65;;;2.47;;
54845;SDS011;53889;50.084;8.646;2023-04-24T09:02:44;5.07;;;1.98;;
54845;SDS011;53889;50.084;8.646;2023-04-24T09:05:13;2.92;;;2.05;;
54845;SDS011;53889;50.084;8.646;2023-04-24T09:07:40;5.40;;;2.00;;
54845;SDS011;53889;50.084;8.646;2023-04-24T09:10:11;2.45;;;1.80;;
54845;SDS011;53889;50.084;8.646;2023-04-24T09:12:38;3.55;;;1.90;;
54845;SDS011;53889;50.084;8.646;2023-04-24T09:15:06;3.75;;;1.90;;
54845;SDS011;53889;50.084;8.646;2023-04-24T09:17:34;5.25;;;2.20;;
54845;SDS011;53889;50.084;8.646;2023-04-24T09:20:01;3.08;;;1.80;;
54845;SDS011;53889;50.084;8.646;2023-04-24T09:22:29;4.80;;;2.10;;
54845;SDS011;53889;50.084;8.646;2023-04-24T09:24:59;3.20;;;2.03;;
54845;SDS011;53889;50.084;8.646;2023-04-24T09:27:30;3.42;;;1.98;;
54845;SDS011;53889;50.084;8.646;2023-04-24T09:29:57;3.00;;;2.00;;
54845;SDS011;53889;50.084;8.646;2023-04-24T09:32:25;4.68;;;2.28;;
54845;SDS011;53889;50.084;8.646;2023-04-24T09:35:08;6.22;;;2.30;;
54845;SDS011;53889;50.084;8.646;2023-04-24T09:37:37;6.60;;;2.30;;
54845;SDS011;53889;50.084;8.646;2023-04-24T09:40:14;4.05;;;2.17;;
54845;SDS011;53889;50.084;8.646;2023-04-24T09:42:50;2.75;;;2.03;;
54845;SDS011;53889;50.084;8.646;2023-04-24T09:45:18;3.72;;;2.13;;
54845;SDS011;53889;50.084;8.646;2023-04-24T09:47:46;4.68;;;1.80;;
54845;SDS011;53889;50.084;8.646;2023-04-24T09:50:18;2.80;;;1.75;;
54845;SDS011;53889;50.084;8.646;2023-04-24T09:52:45;3.10;;;1.85;;
54845;SDS011;53889;50.084;8.646;2023-04-24T09:55:21;4.05;;;1.98;;
54845;SDS011;53889;50.084;8.646;2023-04-24T09:57:50;3.20;;;1.70;;
54845;SDS011;53889;50.084;8.646;2023-04-24T10:00:18;2.70;;;1.60;;
54845;SDS011;53889;50.084;8.646;2023-04-24T10:02:55;2.97;;;2.00;;
54845;SDS011;53889;50.084;8.646;2023-04-24T10:05:29;2.60;;;1.63;;
54845;SDS011;53889;50.084;8.646;2023-04-24T10:07:58;3.67;;;1.48;;
54845;SDS011;53889;50.084;8.646;2023-04-24T10:10:29;2.30;;;1.55;;
54845;SDS011;53889;50.084;8.646;2023-04-24T10:12:58;3.92;;;1.70;;
54845;SDS011;53889;50.084;8.646;2023-04-24T10:15:25;4.90;;;1.60;;
54845;SDS011;53889;50.084;8.646;2023-04-24T10:17:53;6.93;;;2.78;;
54845;SDS011;53889;50.084;8.646;2023-04-24T10:20:20;2.85;;;1.40;;
54845;SDS011;53889;50.084;8.646;2023-04-24T10:22:48;2.47;;;1.40;;
54845;SDS011;53889;50.084;8.646;2023-04-24T10:25:16;5.13;;;2.38;;
54845;SDS011;53889;50.084;8.646;2023-04-24T10:27:46;2.53;;;1.60;;
54845;SDS011;53889;50.084;8.646;2023-04-24T10:30:15;4.55;;;1.70;;
54845;SDS011;53889;50.084;8.646;2023-04-24T10:32:43;2.72;;;1.73;;
54845;SDS011;53889;50.084;8.646;2023-04-24T10:35:10;2.70;;;1.70;;
54845;SDS011;53889;50.084;8.646;2023-04-24T10:37:39;4.68;;;1.80;;
54845;SDS011;53889;50.084;8.646;2023-04-24T10:40:09;2.72;;;1.90;;
54845;SDS011;53889;50.084;8.646;2023-04-24T10:42:39;2.55;;;1.70;;
54845;SDS011;53889;50.084;8.646;2023-04-24T10:45:17;6.03;;;2.35;;
54845;SDS011;53889;50.084;8.646;2023-04-24T10:47:52;3.22;;;1.50;;
54845;SDS011;53889;50.084;8.646;2023-04-24T10:50:23;2.90;;;2.08;;
54845;SDS011;53889;50.084;8.646;2023-04-24T10:52:51;3.78;;;2.17;;
54845;SDS011;53889;50.084;8.646;2023-04-24T10:58:13;5.25;;;2.20;;
54845;SDS011;53889;50.084;8.646;2023-04-24T11:00:43;1.70;;;1.30;;
54845;SDS011;53889;50.084;8.646;2023-04-24T11:03:24;4.13;;;1.70;;
54845;SDS011;53889;50.084;8.646;2023-04-24T11:05:53;2.20;;;1.35;;
54845;SDS011;53889;50.084;8.646;2023-04-24T11:08:25;3.72;;;1.50;;
54845;SDS011;53889;50.084;8.646;2023-04-24T11:11:01;2.90;;;1.30;;
54845;SDS011;53889;50.084;8.646;2023-04-24T11:16:34;1.60;;;1.10;;
54845;SDS011;53889;50.084;8.646;2023-04-24T11:19:04;2.70;;;1.40;;
54845;SDS011;53889;50.084;8.646;2023-04-24T11:21:32;1.88;;;1.15;;
54845;SDS011;53889;50.084;8.646;2023-04-24T11:24:22;3.33;;;1.40;;
54845;SDS011;53889;50.084;8.646;2023-04-24T11:26:50;2.72;;;1.60;;
54845;SDS011;53889;50.084;8.646;2023-04-24T11:29:19;3.20;;;1.48;;
54845;SDS011;53889;50.084;8.646;2023-04-24T11:31:48;3.17;;;1.70;;
54845;SDS011;53889;50.084;8.646;2023-04-24T11:34:16;3.75;;;1.40;;
54845;SDS011;53889;50.084;8.646;2023-04-24T11:36:44;1.77;;;1.40;;
54845;SDS011;53889;50.084;8.646;2023-04-24T11:39:11;2.42;;;1.40;;
54845;SDS011;53889;50.084;8.646;2023-04-24T11:41:38;1.67;;;1.30;;
54845;SDS011;53889;50.084;8.646;2023-04-24T11:44:06;1.83;;;1.40;;
54845;SDS011;53889;50.084;8.646;2023-04-24T11:46:34;2.40;;;1.20;;
54845;SDS011;53889;50.084;8.646;2023-04-24T11:49:04;1.92;;;0.98;;
54845;SDS011;53889;50.084;8.646;2023-04-24T11:51:31;2.28;;;1.08;;
54845;SDS011;53889;50.084;8.646;2023-04-24T11:53:58;3.78;;;1.33;;
54845;SDS011;53889;50.084;8.646;2023-04-24T11:56:25;2.67;;;1.85;;
54845;SDS011;53889;50.084;8.646;2023-04-24T11:58:52;2.05;;;1.40;;
54845;SDS011;53889;50.084;8.646;2023-04-24T12:01:19;10.35;;;3.45;;
54845;SDS011;53889;50.084;8.646;2023-04-24T12:03:47;1.15;;;0.70;;
54845;SDS011;53889;50.084;8.646;2023-04-24T12:06:17;1.58;;;0.65;;
54845;SDS011;53889;50.084;8.646;2023-04-24T12:08:48;1.52;;;0.50;;
54845;SDS011;53889;50.084;8.646;2023-04-24T12:11:15;1.10;;;0.70;;
54845;SDS011;53889;50.084;8.646;2023-04-24T12:13:47;1.10;;;0.70;;
54845;SDS011;53889;50.084;8.646;2023-04-24T12:16:14;2.47;;;1.23;;
54845;SDS011;53889;50.084;8.646;2023-04-24T12:18:44;3.13;;;1.00;;
54845;SDS011;53889;50.084;8.646;2023-04-24T12:21:15;2.55;;;1.30;;
54845;SDS011;53889;50.084;8.646;2023-04-24T12:23:44;2.17;;;1.10;;
54845;SDS011;53889;50.084;8.646;2023-04-24T12:26:12;4.38;;;1.05;;
54845;SDS011;53889;50.084;8.646;2023-04-24T12:28:41;2.20;;;1.40;;
54845;SDS011;53889;50.084;8.646;2023-04-24T12:31:09;2.78;;;1.45;;
54845;SDS011;53889;50.084;8.646;2023-04-24T12:33:35;2.88;;;1.63;;
54845;SDS011;53889;50.084;8.646;2023-04-24T12:36:03;3.22;;;1.73;;
54845;SDS011;53889;50.084;8.646;2023-04-24T12:38:32;2.20;;;1.48;;
54845;SDS011;53889;50.084;8.646;2023-04-24T12:41:06;3.00;;;1.90;;
54845;SDS011;53889;50.084;8.646;2023-04-24T12:43:33;3.08;;;1.80;;
54845;SDS011;53889;50.084;8.646;2023-04-24T12:46:01;3.45;;;1.80;;
54845;SDS011;53889;50.084;8.646;2023-04-24T12:48:29;4.32;;;1.70;;
54845;SDS011;53889;50.084;8.646;2023-04-24T12:50:56;4.35;;;2.60;;
54845;SDS011;53889;50.084;8.646;2023-04-24T12:53:26;4.15;;;2.47;;
54845;SDS011;53889;50.084;8.646;2023-04-24T12:55:56;5.45;;;2.88;;
54845;SDS011;53889;50.084;8.646;2023-04-24T12:58:22;5.60;;;2.75;;
54845;SDS011;53889;50.084;8.646;2023-04-24T13:00:50;5.35;;;2.97;;
54845;SDS011;53889;50.084;8.646;2023-04-24T13:03:16;4.95;;;2.53;;
54845;SDS011;53889;50.084;8.646;2023-04-24T13:05:44;5.95;;;2.30;;
54845;SDS011;53889;50.084;8.646;2023-04-24T13:08:14;4.53;;;2.72;;
54845;SDS011;53889;50.084;8.646;2023-04-24T13:10:41;4.95;;;2.80;;
54845;SDS011;53889;50.084;8.646;2023-04-24T13:13:09;6.63;;;3.53;;
54845;SDS011;53889;50.084;8.646;2023-04-24T13:15:36;5.97;;;3.08;;
54845;SDS011;53889;50.084;8.646;2023-04-24T13:18:04;5.88;;;2.88;;
54845;SDS011;53889;50.084;8.646;2023-04-24T13:20:31;4.80;;;2.60;;
54845;SDS011;53889;50.084;8.646;2023-04-24T13:22:58;5.70;;;2.55;;
54845;SDS011;53889;50.084;8.646;2023-04-24T13:25:25;3.50;;;2.20;;
54845;SDS011;53889;50.084;8.646;2023-04-24T13:27:52;6.50;;;2.20;;
54845;SDS011;53889;50.084;8.646;2023-04-24T13:30:20;5.57;;;2.55;;
54845;SDS011;53889;50.084;8.646;2023-04-24T13:32:47;6.20;;;2.45;;
54845;SDS011;53889;50.084;8.646;2023-04-24T13:35:13;3.50;;;2.20;;
54845;SDS011;53889;50.084;8.646;2023-04-24T13:37:40;6.70;;;2.60;;
54845;SDS011;53889;50.084;8.646;2023-04-24T13:40:07;3.95;;;2.20;;
54845;SDS011;53889;50.084;8.646;2023-04-24T13:42:35;5.13;;;2.33;;
54845;SDS011;53889;50.084;8.646;2023-04-24T13:45:02;4.75;;;2.45;;
54845;SDS011;53889;50.084;8.646;2023-04-24T13:47:31;5.00;;;2.83;;
54845;SDS011;53889;50.084;8.646;2023-04-24T13:49:57;5.40;;;2.80;;
54845;SDS011;53889;50.084;8.646;2023-04-24T13:52:24;4.57;;;2.67;;
54845;SDS011;53889;50.084;8.646;2023-04-24T13:54:51;4.85;;;2.70;;
54845;SDS011;53889;50.084;8.646;2023-04-24T13:57:17;4.05;;;2.33;;
54845;SDS011;53889;50.084;8.646;2023-04-24T13:59:44;3.85;;;2.45;;
54845;SDS011;53889;50.084;8.646;2023-04-24T14:02:11;6.47;;;2.50;;
54845;SDS011;53889;50.084;8.646;2023-04-24T14:04:39;6.30;;;3.25;;
54845;SDS011;53889;50.084;8.646;2023-04-24T14:07:06;5.65;;;2.83;;
54845;SDS011;53889;50.084;8.646;2023-04-24T14:09:33;6.85;;;3.83;;
54845;SDS011;53889;50.084;8.646;2023-04-24T14:12:00;4.82;;;3.20;;
54845;SDS011;53889;50.084;8.646;2023-04-24T14:14:28;4.85;;;3.10;;
54845;SDS011;53889;50.084;8.646;2023-04-24T14:16:55;4.45;;;2.90;;
54845;SDS011;53889;50.084;8.646;2023-04-24T14:19:22;5.72;;;2.70;;
54845;SDS011;53889;50.084;8.646;2023-04-24T14:21:50;5.43;;;3.30;;
54845;SDS011;53889;50.084;8.646;2023-04-24T14:24:17;4.63;;;3.00;;
54845;SDS011;53889;50.084;8.646;2023-04-24T14:26:44;4.82;;;3.10;;
54845;SDS011;53889;50.084;8.646;2023-04-24T14:29:11;6.10;;;3.28;;
54845;SDS011;53889;50.084;8.646;2023-04-24T14:31:38;5.20;;;3.08;;
54845;SDS011;53889;50.084;8.646;2023-04-24T14:34:04;6.43;;;3.63;;
54845;SDS011;53889;50.084;8.646;2023-04-24T14:36:31;4.82;;;2.50;;
54845;SDS011;53889;50.084;8.646;2023-04-24T14:38:59;5.18;;;2.72;;
54845;SDS011;53889;50.084;8.646;2023-04-24T14:41:28;6.25;;;3.05;;
54845;SDS011;53889;50.084;8.646;2023-04-24T14:43:55;4.90;;;2.75;;
54845;SDS011;53889;50.084;8.646;2023-04-24T14:46:22;6.57;;;2.95;;
54845;SDS011;53889;50.084;8.646;2023-04-24T14:48:48;5.45;;;2.70;;
54845;SDS011;53889;50.084;8.646;2023-04-24T14:51:15;5.03;;;2.72;;
54845;SDS011;53889;50.084;8.646;2023-04-24T14:53:42;6.07;;;2.90;;
54845;SDS011;53889;50.084;8.646;2023-04-24T14:56:13;6.20;;;3.10;;
54845;SDS011;53889;50.084;8.646;2023-04-24T14:58:40;6.13;;;3.20;;
54845;SDS011;53889;50.084;8.646;2023-04-24T15:01:06;8.63;;;3.85;;
54845;SDS011;53889;50.084;8.646;2023-04-24T15:03:33;5.80;;;3.10;;